WELCOME TO BirgenAir Virtual Airlines

 STATISTICS

Pilots 31
Aircraft in fleet 0
Routes 0
Total hours: 4491.23
Flights total 4698
Flights Regular 127
Flights Charter 4571
% Flights Regular 2.70 %

 IVAO

 LATEST FLIGHTS

CallsignPilotDepartureArrivalDateFlight Time
BGN262Can Uyanık  LGAV  OLBA 2019-02-22 1.68
BGN557Semih İspiroğlu  LKPR  EGLL 2019-02-22 1.55
BGN156Serdar Kesenci  LTAU  LTBA 2019-02-22 1.01
BGN557Semih İspiroğlu  WIII  YSSY 2019-02-22 5.97
BGN557Semih İspiroğlu  LTBS  LTDA 2019-02-21 1.02

 Active Runways & Weather of LTBA

Take Off:

35R-L


Landing:

05


LTBA 222220Z 35012KT 9999 -SHRA FEW010 BKN030 07/05 Q1015 NOSIG

 NEWEST PILOTS

 FUTURE EVENTS

EventDate

  Facebook

 TOP 5 PILOTS BY FLIGHTS

CallsignPilotFlights
BGN003Bülent ÇAĞLAR559
BGN001Umut Keskin461
BGN974Turgut Uyanık259
BGN005Ceyhun Özbesler257
BGN002Murat Türkarslan248

 News

TitleDate



Copyright © 2011 - 2018 BirgenAir Virtual Airlines. All rights reserved. Developed by Goktug Unver